Time;durP1;ratioP1;P1;durP2;ratioP2;P2;SDS_P1;SDS_P2;PMS_P1;PMS_P2;Temp;Humidity;BMP_temperature;BMP_pressure;BME280_temperature;BME280_humidity;BME280_pressure;Samples;Min_cycle;Max_cycle;Signal;HPM_P1;HPM_P2
2023/06/26 00:02:04;;;;;;;3.17;2.97;;;21.50;54.30;20.70;96545.00;;;;5029712;28;20286;-83
2023/06/26 00:04:35;;;;;;;3.43;3.13;;;21.50;54.50;20.70;96545.00;;;;5016446;28;20238;-82
2023/06/26 00:07:03;;;;;;;3.10;2.90;;;21.40;54.50;20.70;96550.00;;;;5030119;28;20217;-82
2023/06/26 00:09:31;;;;;;;6.53;3.33;;;21.40;54.50;20.60;96546.00;;;;5029703;28;20253;-83
2023/06/26 00:11:59;;;;;;;2.83;2.63;;;21.40;54.60;20.60;96548.00;;;;5019435;28;20289;-82
2023/06/26 00:14:26;;;;;;;3.13;2.80;;;21.40;54.70;20.50;96550.00;;;;5006078;28;20217;-83
2023/06/26 00:16:53;;;;;;;4.00;3.70;;;21.30;54.80;20.50;96546.00;;;;5002709;28;20205;-83
2023/06/26 00:19:20;;;;;;;3.83;3.47;;;21.30;55.10;20.40;96541.00;;;;5013091;28;20231;-83
2023/06/26 00:21:48;;;;;;;2.90;2.70;;;21.20;55.30;20.40;96545.00;;;;5001663;28;20205;-83
2023/06/26 00:24:15;;;;;;;3.07;2.77;;;21.20;55.50;20.30;96540.00;;;;4998397;28;20201;-83
2023/06/26 00:26:44;;;;;;;3.27;3.07;;;21.10;55.60;20.30;96540.00;;;;5003745;28;20200;-83
2023/06/26 00:29:11;;;;;;;3.40;3.10;;;21.10;55.80;20.30;96549.00;;;;5013399;28;20226;-83
2023/06/26 00:31:39;;;;;;;3.10;2.90;;;21.10;55.90;20.30;96545.00;;;;5005472;28;20194;-83
2023/06/26 00:34:07;;;;;;;2.93;2.73;;;21.00;56.00;20.30;96541.00;;;;5009704;28;20257;-83
2023/06/26 00:36:34;;;;;;;3.10;2.90;;;21.00;56.00;20.30;96541.00;;;;5003171;28;20677;-83
2023/06/26 00:39:03;;;;;;;2.73;2.53;;;21.00;56.10;20.30;96546.00;;;;5009085;28;20253;-83
2023/06/26 00:41:30;;;;;;;3.33;3.03;;;21.00;56.10;20.20;96543.00;;;;5005378;28;20203;-82
2023/06/26 00:43:58;;;;;;;2.97;2.77;;;21.00;56.10;20.20;96542.00;;;;5006483;28;20232;-83
2023/06/26 00:46:26;;;;;;;3.20;2.90;;;21.00;56.10;20.20;96543.00;;;;5009892;28;20663;-82
2023/06/26 00:48:55;;;;;;;3.30;3.10;;;20.90;56.10;20.20;96541.00;;;;5007174;28;20232;-83
2023/06/26 00:51:23;;;;;;;3.37;3.13;;;20.90;56.20;20.10;96541.00;;;;5002661;28;20206;-83
2023/06/26 00:53:50;;;;;;;3.60;3.30;;;20.90;56.50;20.10;96540.00;;;;4992076;28;20206;-83
2023/06/26 00:56:20;;;;;;;3.57;3.27;;;20.90;56.60;20.10;96544.00;;;;4999404;28;20226;-82
2023/06/26 00:58:47;;;;;;;3.43;3.13;;;20.90;56.70;20.10;96541.00;;;;5001395;28;20224;-83
2023/06/26 01:01:17;;;;;;;3.27;3.00;;;20.80;56.70;20.00;96542.00;;;;5004018;28;20202;-82
2023/06/26 01:03:45;;;;;;;3.60;3.30;;;20.80;56.80;20.00;96544.00;;;;5002317;28;20237;-83
2023/06/26 01:06:15;;;;;;;2.70;2.50;;;20.70;56.90;20.00;96542.00;;;;5004508;28;20206;-83
2023/06/26 01:08:44;;;;;;;2.97;2.77;;;20.70;57.00;20.00;96542.00;;;;5002098;28;20422;-82
2023/06/26 01:11:11;;;;;;;3.50;3.20;;;20.70;57.00;20.00;96539.00;;;;5006887;28;20207;-83
2023/06/26 01:13:42;;;;;;;3.43;3.13;;;20.70;57.20;19.90;96539.00;;;;5004143;28;20207;-83
2023/06/26 01:16:11;;;;;;;3.43;3.03;;;20.70;57.30;19.90;96538.00;;;;4990345;28;20191;-83
2023/06/26 01:18:41;;;;;;;3.30;3.00;;;20.70;57.30;19.90;96539.00;;;;5002918;28;20222;-83
2023/06/26 01:21:10;;;;;;;3.23;2.97;;;20.70;57.30;19.90;96541.00;;;;5005066;28;20241;-83
2023/06/26 01:23:54;;;;;;;3.20;2.90;;;20.70;57.30;19.80;96541.00;;;;4998947;28;20203;-83
2023/06/26 01:26:24;;;;;;;3.30;3.00;;;20.60;57.30;19.80;96539.00;;;;5014890;28;20203;-83
2023/06/26 01:28:54;;;;;;;2.90;2.70;;;20.60;57.30;19.80;96536.00;;;;4981452;28;20239;-83
2023/06/26 01:31:21;;;;;;;3.13;2.93;;;20.60;57.20;19.80;96529.00;;;;5008672;28;20204;-83
2023/06/26 01:33:50;;;;;;;3.20;3.00;;;20.60;57.30;19.70;96534.00;;;;5010610;28;20666;-83
2023/06/26 01:36:18;;;;;;;3.10;2.90;;;20.50;57.40;19.70;96529.00;;;;5002818;28;20288;-83
2023/06/26 01:38:45;;;;;;;3.10;2.87;;;20.50;57.60;19.70;96537.00;;;;5001077;28;20228;-83
2023/06/26 01:41:12;;;;;;;3.20;3.00;;;20.50;57.70;19.70;96536.00;;;;5007830;28;20204;-83
2023/06/26 01:44:04;;;;;;;3.33;3.03;;;20.50;57.70;19.70;96539.00;;;;5010486;28;20209;-83
2023/06/26 01:46:40;;;;;;;3.33;3.00;;;20.40;58.00;19.60;96533.00;;;;5012366;28;20212;-83
2023/06/26 01:49:17;;;;;;;3.40;3.10;;;20.40;58.00;19.60;96534.00;;;;5018137;28;20229;-83
2023/06/26 01:51:52;;;;;;;3.53;3.23;;;20.40;58.00;19.60;96535.00;;;;5020429;28;20206;-83
2023/06/26 01:54:24;;;;;;;3.43;3.13;;;20.40;58.20;19.60;96528.00;;;;5014989;28;20277;-83
2023/06/26 01:56:54;;;;;;;3.40;3.10;;;20.40;58.10;19.60;96533.00;;;;5010406;28;20285;-82
2023/06/26 01:59:25;;;;;;;3.13;2.93;;;20.40;58.30;19.60;96534.00;;;;5012596;28;20315;-83
2023/06/26 02:01:56;;;;;;;3.27;3.00;;;20.30;58.40;19.50;96535.00;;;;5011253;28;20207;-83
2023/06/26 02:04:23;;;;;;;4.50;3.20;;;20.30;58.40;19.50;96532.00;;;;4995842;28;20210;-83
2023/06/26 02:06:50;;;;;;;3.17;2.97;;;20.30;58.40;19.50;96527.00;;;;5001743;28;20200;-83
2023/06/26 02:09:17;;;;;;;3.83;3.53;;;20.20;58.40;19.50;96535.00;;;;5002579;28;20222;-83
2023/06/26 02:11:44;;;;;;;3.33;3.03;;;20.20;58.50;19.50;96532.00;;;;5007027;28;20205;-83
2023/06/26 02:14:12;;;;;;;3.47;3.10;;;20.20;58.50;19.40;96535.00;;;;4993579;28;20206;-83
2023/06/26 02:16:40;;;;;;;3.40;3.10;;;20.20;58.50;19.40;96534.00;;;;4998576;28;20577;-83
2023/06/26 02:19:08;;;;;;;3.90;3.60;;;20.20;58.70;19.40;96537.00;;;;5014080;28;20601;-83
2023/06/26 02:21:35;;;;;;;3.30;3.07;;;20.20;58.60;19.40;96534.00;;;;5006995;28;20206;-83
2023/06/26 02:24:03;;;;;;;3.50;3.20;;;20.20;58.70;19.30;96531.00;;;;4992480;28;20609;-83
2023/06/26 02:26:30;;;;;;;3.57;3.27;;;20.10;58.60;19.30;96536.00;;;;5007595;28;20201;-83
2023/06/26 02:28:57;;;;;;;3.80;3.50;;;20.10;58.70;19.30;96540.00;;;;5004498;28;20626;-83
2023/06/26 02:31:24;;;;;;;3.33;3.10;;;20.10;58.80;19.30;96535.00;;;;5013132;28;20202;-83
2023/06/26 02:33:53;;;;;;;3.33;3.13;;;20.10;59.00;19.20;96536.00;;;;5010353;28;20198;-83
2023/06/26 02:36:21;;;;;;;3.70;3.40;;;20.10;58.90;19.20;96542.00;;;;5011604;28;20283;-83
2023/06/26 02:38:49;;;;;;;3.33;3.03;;;20.00;58.80;19.20;96546.00;;;;5007691;28;20666;-83
2023/06/26 02:41:16;;;;;;;3.10;2.90;;;20.00;58.80;19.10;96538.00;;;;5008516;28;20198;-83
2023/06/26 02:43:43;;;;;;;3.70;3.40;;;20.00;58.90;19.10;96541.00;;;;5003673;28;20552;-83
2023/06/26 02:46:10;;;;;;;3.60;3.30;;;20.00;58.90;19.10;96535.00;;;;5006395;28;20205;-83
2023/06/26 02:48:37;;;;;;;3.33;3.03;;;19.90;58.90;19.10;96532.00;;;;5010051;28;20725;-83
2023/06/26 02:51:06;;;;;;;3.57;3.27;;;19.90;59.00;19.00;96539.00;;;;4988421;28;20217;-83
2023/06/26 02:53:34;;;;;;;3.47;3.10;;;19.90;59.10;19.00;96533.00;;;;5006033;28;20197;-83
2023/06/26 02:56:02;;;;;;;3.40;3.20;;;19.80;59.10;19.00;96534.00;;;;5010903;28;20568;-83
2023/06/26 02:58:29;;;;;;;3.70;3.40;;;19.80;59.10;18.90;96529.00;;;;5015722;28;20305;-83
2023/06/26 03:00:56;;;;;;;3.70;3.40;;;19.80;59.20;18.90;96533.00;;;;5001258;28;20209;-83
2023/06/26 03:03:24;;;;;;;3.90;3.60;;;19.80;59.20;18.90;96534.00;;;;5004644;28;20208;-83
2023/06/26 03:05:51;;;;;;;4.03;3.63;;;19.70;59.40;18.90;96527.00;;;;5003930;28;20586;-83
2023/06/26 03:08:19;;;;;;;3.53;3.23;;;19.70;59.50;18.90;96518.00;;;;5003067;28;20222;-83
2023/06/26 03:10:46;;;;;;;3.20;3.00;;;19.70;59.80;18.90;96522.00;;;;5002413;28;20222;-83
2023/06/26 03:13:14;;;;;;;4.10;3.57;;;19.70;59.80;18.90;96517.00;;;;5006442;28;20209;-83
2023/06/26 03:15:41;;;;;;;3.70;3.40;;;19.70;59.80;18.80;96529.00;;;;5007036;28;20300;-83
2023/06/26 03:18:09;;;;;;;4.10;3.50;;;19.70;59.90;18.80;96521.00;;;;5017041;28;20198;-83
2023/06/26 03:20:36;;;;;;;4.27;3.83;;;19.70;59.80;18.80;96527.00;;;;5016845;28;20198;-83
2023/06/26 03:23:03;;;;;;;3.53;3.27;;;19.60;60.00;18.80;96530.00;;;;5012920;28;20199;-83
2023/06/26 03:25:32;;;;;;;3.80;3.40;;;19.60;60.20;18.80;96528.00;;;;5015623;28;20728;-83
2023/06/26 03:27:59;;;;;;;7.80;4.07;;;19.60;60.30;18.80;96532.00;;;;5010884;28;20202;-83
2023/06/26 03:30:27;;;;;;;8.47;3.97;;;19.60;60.20;18.80;96533.00;;;;5018532;28;20214;-83
2023/06/26 03:32:56;;;;;;;7.43;4.10;;;19.60;60.30;18.70;96531.00;;;;5005846;28;20199;-83
2023/06/26 03:35:23;;;;;;;7.77;3.50;;;19.60;60.50;18.70;96535.00;;;;5007501;28;20198;-83
2023/06/26 03:37:50;;;;;;;6.63;3.70;;;19.50;60.60;18.70;96534.00;;;;5009208;28;20204;-83
2023/06/26 03:40:17;;;;;;;8.07;3.63;;;19.50;60.70;18.60;96540.00;;;;5009127;28;20209;-83
2023/06/26 03:42:46;;;;;;;3.87;3.43;;;19.50;60.80;18.60;96542.00;;;;5016267;28;20285;-83
2023/06/26 03:45:13;;;;;;;7.47;3.20;;;19.40;60.90;18.60;96538.00;;;;5011347;28;20202;-83
2023/06/26 03:47:40;;;;;;;6.67;3.13;;;19.40;60.90;18.50;96536.00;;;;5012222;28;20200;-83
2023/06/26 03:50:08;;;;;;;4.43;3.33;;;19.40;61.00;18.50;96531.00;;;;5020429;28;20232;-83
2023/06/26 03:52:36;;;;;;;5.83;3.57;;;19.30;61.10;18.50;96538.00;;;;5012647;28;20198;-83
2023/06/26 03:55:03;;;;;;;5.23;3.30;;;19.30;61.10;18.40;96532.00;;;;5017138;28;20214;-83
2023/06/26 03:57:31;;;;;;;4.47;3.47;;;19.30;61.20;18.40;96534.00;;;;5011894;28;20614;-83
2023/06/26 04:00:01;;;;;;;4.20;3.40;;;19.20;61.40;18.40;96537.00;;;;5012851;28;20230;-82
2023/06/26 04:02:28;;;;;;;4.37;3.63;;;19.20;62.50;18.40;96526.00;;;;5017135;28;20205;-83
2023/06/26 04:04:56;;;;;;;4.87;3.47;;;19.20;61.80;18.40;96532.00;;;;5005132;28;20202;-86
2023/06/26 04:07:23;;;;;;;4.27;3.23;;;19.20;62.00;18.40;96527.00;;;;5004149;28;20255;-85
2023/06/26 04:09:50;;;;;;;3.87;3.40;;;19.20;62.20;18.40;96535.00;;;;5001190;28;20294;-83
2023/06/26 04:12:17;;;;;;;3.50;3.20;;;19.20;63.10;18.40;96539.00;;;;4996115;28;20589;-83
2023/06/26 04:14:44;;;;;;;3.67;3.37;;;19.20;62.60;18.40;96541.00;;;;5002756;28;20203;-83
2023/06/26 04:17:13;;;;;;;4.87;4.10;;;19.20;62.70;18.40;96540.00;;;;5001437;28;20198;-85
2023/06/26 04:19:40;;;;;;;6.43;3.67;;;19.20;62.90;18.40;96532.00;;;;4992677;28;20233;-84
2023/06/26 04:22:07;;;;;;;4.53;4.13;;;19.20;62.90;18.40;96536.00;;;;5001866;28;20203;-83
2023/06/26 04:24:34;;;;;;;4.07;3.67;;;19.20;63.00;18.40;96531.00;;;;5012865;28;20217;-83
2023/06/26 04:27:02;;;;;;;3.87;3.47;;;19.20;63.10;18.50;96532.00;;;;5007616;28;20194;-84
2023/06/26 04:29:29;;;;;;;4.60;4.20;;;19.20;63.20;18.50;96533.00;;;;5006642;28;20221;-82
2023/06/26 04:31:58;;;;;;;4.60;3.97;;;19.20;63.30;18.50;96528.00;;;;4998786;28;20205;-82
2023/06/26 04:34:26;;;;;;;3.93;3.30;;;19.20;63.50;18.50;96526.00;;;;5002176;28;20202;-82
2023/06/26 04:36:53;;;;;;;4.00;3.60;;;19.30;63.70;18.60;96529.00;;;;5005214;28;20213;-82
2023/06/26 04:39:20;;;;;;;5.53;4.67;;;19.30;63.70;18.60;96530.00;;;;5000807;28;20223;-82
2023/06/26 04:41:48;;;;;;;3.73;3.33;;;19.30;63.80;18.70;96532.00;;;;5000548;28;20194;-82
2023/06/26 04:44:15;;;;;;;4.83;3.90;;;19.40;63.80;18.70;96528.00;;;;5012701;28;20572;-82
2023/06/26 04:46:42;;;;;;;5.37;3.80;;;19.40;63.80;18.70;96532.00;;;;5000526;28;20356;-82
2023/06/26 04:49:09;;;;;;;5.47;3.80;;;19.50;64.00;18.80;96541.00;;;;5006146;28;20226;-82
2023/06/26 04:51:40;;;;;;;6.53;4.50;;;19.50;64.00;18.80;96533.00;;;;5009507;28;20224;-81
2023/06/26 04:54:08;;;;;;;6.57;3.97;;;19.50;64.10;18.90;96525.00;;;;5000039;28;20202;-83
2023/06/26 04:56:35;;;;;;;5.50;4.37;;;19.60;64.20;19.00;96529.00;;;;4999306;28;20202;-82
2023/06/26 04:59:04;;;;;;;4.90;4.50;;;19.60;64.30;19.00;96526.00;;;;4989222;28;20253;-83
2023/06/26 05:01:32;;;;;;;6.47;4.30;;;19.70;64.40;19.10;96534.00;;;;4997032;28;20261;-83
2023/06/26 05:03:59;;;;;;;5.17;4.77;;;19.70;64.30;19.10;96540.00;;;;5005236;28;20577;-82
2023/06/26 05:06:26;;;;;;;5.27;4.77;;;19.80;64.10;19.20;96535.00;;;;5013027;28;20670;-82
2023/06/26 05:08:55;;;;;;;5.67;4.80;;;19.80;63.80;19.30;96520.00;;;;5014863;28;20304;-82
2023/06/26 05:11:22;;;;;;;5.13;4.60;;;19.90;63.60;19.30;96534.00;;;;5009478;28;20234;-82
2023/06/26 05:13:50;;;;;;;5.30;4.80;;;20.00;63.50;19.40;96531.00;;;;5005853;28;20203;-82
2023/06/26 05:16:17;;;;;;;5.30;4.80;;;20.00;63.50;19.50;96528.00;;;;5006081;28;20284;-83
2023/06/26 05:18:45;;;;;;;5.47;4.97;;;20.10;63.30;19.60;96525.00;;;;5016575;28;20214;-84
2023/06/26 05:21:12;;;;;;;5.33;4.47;;;20.20;63.30;19.60;96530.00;;;;5011202;28;20290;-81
2023/06/26 05:23:40;;;;;;;5.00;4.50;;;20.20;63.00;19.70;96528.00;;;;4997528;28;20286;-82
2023/06/26 05:26:10;;;;;;;5.53;5.03;;;20.30;62.90;19.80;96527.00;;;;5010416;28;20220;-83
2023/06/26 05:28:38;;;;;;;5.00;4.60;;;20.30;62.70;19.90;96531.00;;;;5004925;28;20701;-83
2023/06/26 05:31:06;;;;;;;6.23;5.53;;;20.40;62.50;19.90;96531.00;;;;5010133;28;20209;-84
2023/06/26 05:33:37;;;;;;;5.20;4.80;;;20.50;62.30;20.00;96527.00;;;;5005367;28;20221;-83
2023/06/26 05:36:08;;;;;;;6.20;4.90;;;20.60;62.00;20.10;96524.00;;;;5000278;28;20206;-84
2023/06/26 05:38:36;;;;;;;6.23;5.20;;;20.60;62.00;20.20;96525.00;;;;5014915;28;20224;-84
2023/06/26 05:41:04;;;;;;;6.37;4.83;;;20.70;61.70;20.30;96533.00;;;;5017866;28;20224;-83
2023/06/26 05:43:33;;;;;;;5.63;5.10;;;20.80;61.60;20.40;96533.00;;;;5014837;28;20200;-84
2023/06/26 05:46:00;;;;;;;5.07;4.57;;;20.90;61.60;20.40;96538.00;;;;5007608;28;20396;-84
2023/06/26 05:48:27;;;;;;;5.80;5.00;;;20.90;61.70;20.50;96530.00;;;;5011084;28;20223;-84
2023/06/26 05:50:56;;;;;;;5.67;5.07;;;21.00;61.50;20.60;96531.00;;;;5011384;28;20246;-85
2023/06/26 05:53:24;;;;;;;5.03;4.53;;;21.10;61.10;20.70;96529.00;;;;5011945;28;20281;-84
2023/06/26 05:55:54;;;;;;;5.53;5.03;;;21.20;60.60;20.80;96534.00;;;;5005891;28;20249;-83
2023/06/26 05:58:24;;;;;;;5.40;4.73;;;21.30;60.50;20.90;96536.00;;;;5010849;28;20228;-83
2023/06/26 06:00:53;;;;;;;5.50;5.00;;;21.30;60.00;21.00;96534.00;;;;5012316;28;20214;-82
2023/06/26 06:03:20;;;;;;;6.40;4.73;;;21.40;60.00;21.10;96539.00;;;;5016606;28;20261;-82
2023/06/26 06:05:47;;;;;;;5.70;4.97;;;21.50;60.20;21.20;96540.00;;;;5011603;28;20222;-84
2023/06/26 06:08:15;;;;;;;5.70;5.20;;;21.60;60.50;21.30;96534.00;;;;5009879;28;20950;-86
2023/06/26 06:10:42;;;;;;;5.43;4.30;;;21.70;59.70;21.40;96535.00;;;;4991042;28;20252;-84
2023/06/26 06:13:09;;;;;;;4.93;4.53;;;21.70;59.60;21.50;96536.00;;;;5006565;28;20226;-83
2023/06/26 06:15:36;;;;;;;5.40;4.60;;;21.80;59.40;21.50;96543.00;;;;4998592;28;20201;-82
2023/06/26 06:18:05;;;;;;;5.63;5.13;;;21.90;59.40;21.60;96543.00;;;;5010436;28;20205;-83
2023/06/26 06:20:33;;;;;;;5.23;4.60;;;22.00;59.20;21.70;96540.00;;;;5005219;28;20206;-83
2023/06/26 06:23:00;;;;;;;4.97;4.57;;;22.10;59.10;21.80;96532.00;;;;4996785;28;20301;-84
2023/06/26 06:25:28;;;;;;;4.83;4.30;;;22.20;59.00;21.90;96535.00;;;;5013133;28;20205;-85
2023/06/26 06:27:55;;;;;;;5.47;4.97;;;22.30;59.00;22.00;96536.00;;;;5011323;28;20717;-86
2023/06/26 06:30:23;;;;;;;5.30;4.80;;;22.40;59.00;22.10;96530.00;;;;5010988;28;20721;-86
2023/06/26 06:32:52;;;;;;;5.60;5.10;;;22.40;58.90;22.20;96537.00;;;;5014319;28;20209;-83
2023/06/26 06:35:21;;;;;;;5.10;4.60;;;22.50;58.70;22.30;96523.00;;;;5016414;28;20763;-83
2023/06/26 06:37:48;;;;;;;5.33;4.83;;;22.60;58.70;22.40;96527.00;;;;5013779;28;20209;-84
2023/06/26 06:40:17;;;;;;;4.93;4.53;;;22.70;58.60;22.50;96540.00;;;;5008774;28;20551;-83
2023/06/26 06:42:44;;;;;;;4.90;4.40;;;22.80;58.60;22.60;96536.00;;;;4995799;28;20191;-83
2023/06/26 06:45:11;;;;;;;4.50;4.10;;;22.90;58.40;22.70;96537.00;;;;5008534;28;20734;-83
2023/06/26 06:47:38;;;;;;;5.83;5.23;;;23.00;58.40;22.80;96544.00;;;;4993325;28;20195;-83
2023/06/26 06:50:08;;;;;;;5.33;4.83;;;23.10;58.60;22.90;96537.00;;;;5008979;28;20224;-83
2023/06/26 06:52:40;;;;;;;5.93;5.13;;;23.20;58.50;23.00;96542.00;;;;5006047;28;20654;-83
2023/06/26 06:55:09;;;;;;;5.57;4.97;;;23.30;58.20;23.10;96543.00;;;;5016214;28;20223;-83
2023/06/26 06:57:38;;;;;;;5.47;4.97;;;23.50;58.10;23.30;96543.00;;;;5016257;28;20204;-83
2023/06/26 07:00:09;;;;;;;5.67;4.83;;;23.50;58.00;23.40;96537.00;;;;5017603;28;20313;-81
2023/06/26 07:02:37;;;;;;;5.30;4.80;;;23.60;58.10;23.50;96540.00;;;;5010447;28;20288;-81
2023/06/26 07:05:04;;;;;;;5.80;5.20;;;23.70;58.10;23.60;96534.00;;;;5016923;28;20202;-81
2023/06/26 07:07:34;;;;;;;6.57;5.07;;;23.90;58.00;23.70;96539.00;;;;5004265;28;20571;-82
2023/06/26 07:10:05;;;;;;;5.53;5.03;;;24.00;57.60;23.90;96540.00;;;;5001411;28;20225;-82
2023/06/26 07:12:33;;;;;;;5.57;4.77;;;24.10;57.80;24.10;96537.00;;;;5012850;28;20280;-83
2023/06/26 07:15:02;;;;;;;6.07;5.07;;;24.30;57.80;24.30;96533.00;;;;5014310;28;20216;-82
2023/06/26 07:17:29;;;;;;;6.27;4.57;;;24.40;57.70;24.40;96541.00;;;;5013611;28;20194;-82
2023/06/26 07:19:57;;;;;;;5.37;4.87;;;24.60;57.60;24.60;96541.00;;;;5009847;28;20254;-82
2023/06/26 07:22:24;;;;;;;4.83;4.43;;;24.70;57.50;24.80;96548.00;;;;5008276;28;20198;-82
2023/06/26 07:24:51;;;;;;;5.67;4.17;;;24.90;57.40;25.00;96542.00;;;;5008947;28;20301;-82
2023/06/26 07:27:21;;;;;;;5.27;4.87;;;25.10;57.20;25.10;96539.00;;;;5005945;28;20194;-80
2023/06/26 07:29:49;;;;;;;5.43;4.93;;;25.20;56.80;25.30;96540.00;;;;5005208;28;22241;-82
2023/06/26 07:32:16;;;;;;;4.63;4.23;;;25.40;56.60;25.40;96543.00;;;;5009977;28;20253;-82
2023/06/26 07:34:44;;;;;;;5.13;4.73;;;25.60;56.90;25.60;96537.00;;;;4993529;28;20226;-82
2023/06/26 07:37:11;;;;;;;6.23;4.57;;;25.70;56.90;25.70;96538.00;;;;5005486;28;20205;-81
2023/06/26 07:39:38;;;;;;;5.13;4.63;;;25.90;57.10;25.90;96544.00;;;;5003026;28;20224;-82
2023/06/26 07:42:05;;;;;;;4.80;4.30;;;26.00;56.80;26.00;96545.00;;;;5005167;28;20195;-82
2023/06/26 07:44:34;;;;;;;5.30;4.37;;;26.20;56.50;26.20;96539.00;;;;5004053;28;20198;-82
2023/06/26 07:47:01;;;;;;;5.43;4.83;;;26.30;56.00;26.40;96540.00;;;;5012108;28;20216;-82
2023/06/26 07:49:29;;;;;;;4.43;4.03;;;26.50;55.60;26.50;96535.00;;;;5005184;28;20325;-81
2023/06/26 07:51:56;;;;;;;4.50;4.07;;;26.70;55.60;26.70;96547.00;;;;5004466;28;20194;-82
2023/06/26 07:54:23;;;;;;;4.20;3.80;;;26.80;55.40;26.90;96546.00;;;;5003222;28;20232;-82
2023/06/26 07:56:56;;;;;;;4.63;4.13;;;27.00;54.90;27.10;96547.00;;;;5006899;28;20202;-82
2023/06/26 07:59:25;;;;;;;4.72;4.28;;;27.10;54.50;27.20;96544.00;;;;5004970;28;20224;-81
2023/06/26 08:01:56;;;;;;;4.80;3.73;;;27.30;54.00;27.40;96542.00;;;;5012373;28;20579;-83
2023/06/26 08:04:26;;;;;;;4.22;3.92;;;27.50;53.60;27.60;96545.00;;;;5007128;28;20218;-82
2023/06/26 08:06:58;;;;;;;5.30;4.47;;;27.60;53.30;27.70;96547.00;;;;5013447;28;20198;-82
2023/06/26 08:09:28;;;;;;;4.10;3.70;;;27.80;52.60;27.80;96536.00;;;;5009673;28;20708;-82
2023/06/26 08:11:56;;;;;;;4.07;3.78;;;28.00;52.60;28.00;96543.00;;;;5013945;28;20202;-82
2023/06/26 08:14:23;;;;;;;4.53;4.03;;;28.10;52.20;28.10;96537.00;;;;5002321;28;20338;-82
2023/06/26 08:16:51;;;;;;;4.20;3.90;;;28.20;51.60;28.30;96538.00;;;;5006542;28;20225;-82
2023/06/26 08:19:19;;;;;;;3.85;3.55;;;28.40;52.00;28.50;96535.00;;;;5000854;28;20304;-83
2023/06/26 08:21:49;;;;;;;4.00;3.70;;;28.50;51.50;28.60;96538.00;;;;5012216;28;20204;-84
2023/06/26 08:24:18;;;;;;;4.03;3.72;;;28.70;51.10;28.80;96541.00;;;;5013889;28;20225;-82
2023/06/26 08:26:47;;;;;;;4.40;4.00;;;28.80;51.00;29.00;96533.00;;;;5016508;28;20194;-81
2023/06/26 08:29:15;;;;;;;4.50;4.13;;;29.00;50.90;29.20;96540.00;;;;5017493;28;20674;-81
2023/06/26 08:31:44;;;;;;;3.83;3.53;;;29.20;50.80;29.30;96549.00;;;;5019782;28;20222;-82
2023/06/26 08:34:11;;;;;;;3.90;3.60;;;29.30;50.60;29.50;96543.00;;;;5015370;28;20203;-82
2023/06/26 08:36:40;;;;;;;4.18;3.88;;;29.50;50.60;29.70;96537.00;;;;5019187;28;20201;-83
2023/06/26 08:39:08;;;;;;;3.95;3.63;;;29.60;50.20;29.80;96540.00;;;;5019572;28;20213;-82
2023/06/26 08:41:35;;;;;;;3.80;3.50;;;29.80;50.10;30.00;96536.00;;;;5021970;28;20389;-83
2023/06/26 08:44:04;;;;;;;4.10;3.70;;;30.00;49.50;30.20;96541.00;;;;5008118;28;20241;-84
2023/06/26 08:46:34;;;;;;;4.32;3.80;;;30.20;49.80;30.40;96532.00;;;;5009956;28;20198;-83
2023/06/26 08:49:14;;;;;;;4.20;3.80;;;30.30;49.00;30.50;96540.00;;;;5010538;28;20246;-81
2023/06/26 08:51:50;;;;;;;4.15;3.80;;;30.50;48.70;30.70;96539.00;;;;5012513;28;20308;-81
2023/06/26 08:54:23;;;;;;;4.95;3.67;;;30.70;48.80;30.90;96540.00;;;;5008836;28;20204;-83
2023/06/26 08:56:51;;;;;;;3.72;3.42;;;30.80;48.80;31.00;96533.00;;;;5013563;28;20282;-84
2023/06/26 08:59:22;;;;;;;4.13;3.83;;;31.00;48.40;31.20;96533.00;;;;5004782;28;20277;-84
2023/06/26 09:01:52;;;;;;;4.10;3.80;;;31.10;47.80;31.40;96531.00;;;;5011362;28;20206;-84
2023/06/26 09:04:19;;;;;;;3.67;3.38;;;31.30;47.50;31.50;96534.00;;;;5005248;28;20224;-84
2023/06/26 09:06:51;;;;;;;4.22;3.92;;;31.50;47.60;31.70;96533.00;;;;5007027;28;20198;-84
2023/06/26 09:09:18;;;;;;;3.72;3.42;;;31.60;47.10;31.80;96535.00;;;;5008346;28;20245;-84
2023/06/26 09:11:45;;;;;;;4.70;3.70;;;31.70;47.30;32.00;96534.00;;;;5000504;28;20313;-84
2023/06/26 09:14:13;;;;;;;4.00;3.70;;;31.90;46.90;32.10;96520.00;;;;5008793;28;20202;-84
2023/06/26 09:16:43;;;;;;;3.80;3.50;;;32.10;46.60;32.30;96536.00;;;;5003705;28;20199;-84
2023/06/26 09:19:12;;;;;;;4.22;3.72;;;32.20;46.80;32.50;96533.00;;;;5013897;28;20229;-78
2023/06/26 09:21:40;;;;;;;3.78;3.47;;;32.40;46.10;32.60;96528.00;;;;5016447;28;20216;-79
2023/06/26 09:24:11;;;;;;;3.83;3.53;;;32.50;45.90;32.80;96523.00;;;;5008772;28;20251;-79
2023/06/26 09:26:40;;;;;;;3.80;3.50;;;32.70;45.10;32.90;96525.00;;;;5008853;28;20201;-79
2023/06/26 09:29:09;;;;;;;3.95;3.65;;;32.80;45.00;33.00;96519.00;;;;4997491;28;20281;-79
2023/06/26 09:31:38;;;;;;;3.83;3.05;;;33.00;44.50;33.10;96523.00;;;;5004882;28;20304;-79
2023/06/26 09:34:07;;;;;;;3.83;3.53;;;33.10;44.30;33.30;96515.00;;;;5003690;28;20202;-79
2023/06/26 09:36:36;;;;;;;3.50;3.28;;;33.20;44.20;33.40;96521.00;;;;5006784;28;20306;-79
2023/06/26 09:39:08;;;;;;;3.72;3.45;;;33.40;43.80;33.60;96523.00;;;;5014703;28;20679;-79
2023/06/26 09:41:37;;;;;;;3.72;3.45;;;33.60;43.60;33.70;96523.00;;;;5018932;28;20201;-77
2023/06/26 09:44:07;;;;;;;3.38;3.08;;;33.70;43.50;33.90;96518.00;;;;5014450;28;20240;-79
2023/06/26 09:46:35;;;;;;;3.80;3.50;;;33.90;42.90;34.00;96514.00;;;;5012630;28;20252;-78
2023/06/26 09:49:07;;;;;;;3.35;3.05;;;34.10;42.60;34.20;96518.00;;;;5005301;28;20218;-79
2023/06/26 09:51:37;;;;;;;3.80;3.50;;;34.30;41.80;34.40;96511.00;;;;4995882;28;20313;-78
2023/06/26 09:54:06;;;;;;;3.15;2.95;;;34.50;41.90;34.50;96505.00;;;;5000314;28;20203;-78
2023/06/26 09:56:37;;;;;;;2.80;2.63;;;34.70;42.30;34.70;96514.00;;;;5009129;28;20202;-81
2023/06/26 09:59:07;;;;;;;2.92;2.72;;;34.90;41.70;34.90;96508.00;;;;5009056;28;20217;-80
2023/06/26 10:01:35;;;;;;;2.78;2.58;;;35.20;41.20;35.10;96507.00;;;;5010763;28;20325;-80
2023/06/26 10:04:02;;;;;;;2.90;2.70;;;35.50;41.00;35.30;96514.00;;;;5008539;28;20190;-80
2023/06/26 10:06:37;;;;;;;3.67;2.90;;;35.70;40.60;35.50;96509.00;;;;5008195;28;20201;-80
2023/06/26 10:09:06;;;;;;;2.80;2.60;;;36.10;40.20;35.70;96510.00;;;;5009028;28;20245;-80
2023/06/26 10:11:42;;;;;;;2.75;2.55;;;36.40;40.00;35.90;96506.00;;;;5011808;28;20224;-80
2023/06/26 10:14:13;;;;;;;3.10;2.90;;;36.60;39.40;36.10;96510.00;;;;5007035;28;20663;-80
2023/06/26 10:16:44;;;;;;;2.50;2.30;;;37.00;39.40;36.30;96511.00;;;;5007645;28;20204;-80
2023/06/26 10:19:14;;;;;;;3.08;2.88;;;37.20;39.40;36.40;96503.00;;;;5011145;28;20221;-80
2023/06/26 10:21:42;;;;;;;2.83;2.65;;;37.40;38.80;36.60;96498.00;;;;5005327;28;20201;-80
2023/06/26 10:24:13;;;;;;;2.80;2.70;;;37.70;38.40;36.70;96501.00;;;;5012722;28;20561;-81
2023/06/26 10:26:46;;;;;;;2.67;2.47;;;37.80;38.00;36.80;96500.00;;;;5005948;28;20280;-80
2023/06/26 10:29:17;;;;;;;2.95;2.75;;;38.00;37.50;36.90;96496.00;;;;5006312;28;20265;-80
2023/06/26 10:31:51;;;;;;;2.80;2.60;;;38.10;37.70;37.10;96499.00;;;;5005445;28;20237;-80
2023/06/26 10:34:18;;;;;;;2.70;2.50;;;38.20;37.20;37.20;96501.00;;;;5005210;28;20198;-80
2023/06/26 10:36:47;;;;;;;3.03;2.75;;;38.30;36.90;37.30;96500.00;;;;5003875;28;20194;-80
2023/06/26 10:39:14;;;;;;;2.95;2.75;;;38.40;36.70;37.30;96499.00;;;;5000377;28;20215;-79
2023/06/26 10:41:43;;;;;;;2.30;2.20;;;38.40;36.80;37.40;96501.00;;;;5005810;28;20202;-80
2023/06/26 10:44:12;;;;;;;3.10;2.80;;;38.40;36.50;37.50;96496.00;;;;4999501;28;20202;-80
2023/06/26 10:46:53;;;;;;;3.15;2.95;;;38.50;36.30;37.60;96491.00;;;;5003235;28;20219;-80
2023/06/26 10:49:22;;;;;;;2.70;2.60;;;38.50;35.80;37.70;96487.00;;;;5011648;28;20218;-80
2023/06/26 10:51:51;;;;;;;2.85;2.67;;;38.50;35.90;37.70;96491.00;;;;5011369;28;20244;-80
2023/06/26 10:54:20;;;;;;;2.45;2.28;;;38.50;35.80;37.70;96491.00;;;;5003369;28;20206;-80
2023/06/26 10:56:53;;;;;;;2.67;2.47;;;38.40;35.60;37.70;96483.00;;;;5001517;28;20205;-80
2023/06/26 10:59:23;;;;;;;3.25;2.80;;;38.40;35.40;37.70;96477.00;;;;5010314;28;20215;-80
2023/06/26 11:01:57;;;;;;;3.05;2.85;;;38.30;35.20;37.60;96479.00;;;;5010001;28;20213;-79